sensor_id;sensor_type;location;lat;lon;timestamp;pressure;altitude;pressure_sealevel;temperature;humidity
64739;BME280;51175;51.186;0.276;2023-04-24T00:00:25;100140.69;;;15.78;62.89
64739;BME280;51175;51.186;0.276;2023-04-24T00:00:56;100129.25;;;15.77;62.71
64739;BME280;51175;51.186;0.276;2023-04-24T00:01:27;100139.09;;;15.77;62.81
64739;BME280;51175;51.186;0.276;2023-04-24T00:01:59;100138.34;;;15.76;62.94
64739;BME280;51175;51.186;0.276;2023-04-24T00:02:31;100141.00;;;15.76;63.02
64739;BME280;51175;51.186;0.276;2023-04-24T00:03:02;100144.44;;;15.77;62.83
64739;BME280;51175;51.186;0.276;2023-04-24T00:03:33;100140.19;;;15.76;63.02
64739;BME280;51175;51.186;0.276;2023-04-24T00:04:03;100148.19;;;15.76;62.85
64739;BME280;51175;51.186;0.276;2023-04-24T00:04:34;100144.72;;;15.75;62.99
64739;BME280;51175;51.186;0.276;2023-04-24T00:05:05;100146.63;;;15.75;62.68
64739;BME280;51175;51.186;0.276;2023-04-24T00:05:36;100143.16;;;15.74;62.91
64739;BME280;51175;51.186;0.276;2023-04-24T00:06:06;100143.16;;;15.74;63.00
64739;BME280;51175;51.186;0.276;2023-04-24T00:06:38;100147.69;;;15.74;62.84
64739;BME280;51175;51.186;0.276;2023-04-24T00:07:08;100138.66;;;15.75;62.94
64739;BME280;51175;51.186;0.276;2023-04-24T00:07:40;100149.59;;;15.73;63.05
64739;BME280;51175;51.186;0.276;2023-04-24T00:08:11;100146.94;;;15.73;62.84
64739;BME280;51175;51.186;0.276;2023-04-24T00:08:41;100145.34;;;15.72;62.71
64739;BME280;51175;51.186;0.276;2023-04-24T00:09:11;100141.59;;;15.73;62.95
64739;BME280;51175;51.186;0.276;2023-04-24T00:09:43;100142.69;;;15.72;62.92
64739;BME280;51175;51.186;0.276;2023-04-24T00:10:13;100144.56;;;15.72;62.89
64739;BME280;51175;51.186;0.276;2023-04-24T00:10:44;100143.47;;;15.73;62.70
64739;BME280;51175;51.186;0.276;2023-04-24T00:11:14;100145.34;;;15.72;62.76
64739;BME280;51175;51.186;0.276;2023-04-24T00:11:45;100149.09;;;15.71;62.64
64739;BME280;51175;51.186;0.276;2023-04-24T00:12:15;100146.13;;;15.73;63.02
64739;BME280;51175;51.186;0.276;2023-04-24T00:12:45;100141.91;;;15.72;62.96
64739;BME280;51175;51.186;0.276;2023-04-24T00:13:16;100146.44;;;15.71;62.72
64739;BME280;51175;51.186;0.276;2023-04-24T00:13:46;100150.66;;;15.72;63.00
64739;BME280;51175;51.186;0.276;2023-04-24T00:14:17;100154.44;;;15.71;62.69
64739;BME280;51175;51.186;0.276;2023-04-24T00:14:47;100153.63;;;15.71;62.77
64739;BME280;51175;51.186;0.276;2023-04-24T00:15:17;100150.97;;;15.71;62.77
64739;BME280;51175;51.186;0.276;2023-04-24T00:15:48;100145.66;;;15.71;62.89
64739;BME280;51175;51.186;0.276;2023-04-24T00:16:18;100148.31;;;15.71;62.71
64739;BME280;51175;51.186;0.276;2023-04-24T00:16:48;100153.63;;;15.71;62.90
64739;BME280;51175;51.186;0.276;2023-04-24T00:17:19;100152.88;;;15.70;62.81
64739;BME280;51175;51.186;0.276;2023-04-24T00:17:52;100147.53;;;15.70;62.92
64739;BME280;51175;51.186;0.276;2023-04-24T00:18:23;100152.06;;;15.70;62.85
64739;BME280;51175;51.186;0.276;2023-04-24T00:18:54;100152.06;;;15.70;62.80
64739;BME280;51175;51.186;0.276;2023-04-24T00:19:24;100152.06;;;15.70;62.78
64739;BME280;51175;51.186;0.276;2023-04-24T00:19:54;100152.06;;;15.70;62.75
64739;BME280;51175;51.186;0.276;2023-04-24T00:20:34;100151.28;;;15.69;62.93
64739;BME280;51175;51.186;0.276;2023-04-24T00:21:05;100155.03;;;15.68;62.96
64739;BME280;51175;51.186;0.276;2023-04-24T00:21:36;100150.50;;;15.69;62.80
64739;BME280;51175;51.186;0.276;2023-04-24T00:22:06;100156.13;;;15.67;63.00
64739;BME280;51175;51.186;0.276;2023-04-24T00:22:37;100154.22;;;15.68;62.94
64739;BME280;51175;51.186;0.276;2023-04-24T00:23:07;100152.38;;;15.68;62.82
64739;BME280;51175;51.186;0.276;2023-04-24T00:23:38;100156.13;;;15.67;62.90
64739;BME280;51175;51.186;0.276;2023-04-24T00:24:08;100152.66;;;15.67;62.91
64739;BME280;51175;51.186;0.276;2023-04-24T00:24:41;100159.56;;;15.68;62.82
64739;BME280;51175;51.186;0.276;2023-04-24T00:25:12;100155.34;;;15.67;62.96
64739;BME280;51175;51.186;0.276;2023-04-24T00:25:42;100156.41;;;15.66;62.61
64739;BME280;51175;51.186;0.276;2023-04-24T00:26:13;100161.72;;;15.66;62.85
64739;BME280;51175;51.186;0.276;2023-04-24T00:26:43;100164.38;;;15.66;62.91
64739;BME280;51175;51.186;0.276;2023-04-24T00:27:14;100155.63;;;15.65;63.05
64739;BME280;51175;51.186;0.276;2023-04-24T00:27:44;100168.66;;;15.67;62.91
64739;BME280;51175;51.186;0.276;2023-04-24T00:28:16;100160.16;;;15.64;63.05
64739;BME280;51175;51.186;0.276;2023-04-24T00:28:46;100167.06;;;15.66;62.73
64739;BME280;51175;51.186;0.276;2023-04-24T00:29:17;100163.63;;;15.65;62.89
64739;BME280;51175;51.186;0.276;2023-04-24T00:29:47;100164.38;;;15.66;63.05
64739;BME280;51175;51.186;0.276;2023-04-24T00:30:18;100168.94;;;15.65;63.00
64739;BME280;51175;51.186;0.276;2023-04-24T00:30:48;100166.28;;;15.65;62.92
64739;BME280;51175;51.186;0.276;2023-04-24T00:31:18;100167.34;;;15.64;62.98
64739;BME280;51175;51.186;0.276;2023-04-24T00:31:49;100168.94;;;15.65;62.69
64739;BME280;51175;51.186;0.276;2023-04-24T00:32:19;100166.28;;;15.65;62.79
64739;BME280;51175;51.186;0.276;2023-04-24T00:32:50;100175.34;;;15.64;63.05
64739;BME280;51175;51.186;0.276;2023-04-24T00:33:20;100168.16;;;15.64;62.92
64739;BME280;51175;51.186;0.276;2023-04-24T00:33:50;100172.69;;;15.64;62.91
64739;BME280;51175;51.186;0.276;2023-04-24T00:34:21;100170.00;;;15.64;62.96
64739;BME280;51175;51.186;0.276;2023-04-24T00:34:51;100164.69;;;15.64;63.00
64739;BME280;51175;51.186;0.276;2023-04-24T00:35:22;100168.16;;;15.64;62.89
64739;BME280;51175;51.186;0.276;2023-04-24T00:35:53;100168.94;;;15.65;62.94
64739;BME280;51175;51.186;0.276;2023-04-24T00:36:23;100165.50;;;15.64;62.93
64739;BME280;51175;51.186;0.276;2023-04-24T00:36:54;100168.16;;;15.64;62.93
64739;BME280;51175;51.186;0.276;2023-04-24T00:37:25;100176.13;;;15.64;63.13
64739;BME280;51175;51.186;0.276;2023-04-24T00:37:55;100165.78;;;15.63;62.98
64739;BME280;51175;51.186;0.276;2023-04-24T00:38:25;100175.34;;;15.64;62.95
64739;BME280;51175;51.186;0.276;2023-04-24T00:38:57;100171.91;;;15.63;62.83
64739;BME280;51175;51.186;0.276;2023-04-24T00:39:28;100176.44;;;15.63;62.90
64739;BME280;51175;51.186;0.276;2023-04-24T00:39:58;100172.97;;;15.62;63.00
64739;BME280;51175;51.186;0.276;2023-04-24T00:40:29;100170.31;;;15.62;62.86
64739;BME280;51175;51.186;0.276;2023-04-24T00:41:00;100173.78;;;15.63;62.76
64739;BME280;51175;51.186;0.276;2023-04-24T00:41:30;100170.31;;;15.62;63.17
64739;BME280;51175;51.186;0.276;2023-04-24T00:42:01;100174.06;;;15.61;62.96
64739;BME280;51175;51.186;0.276;2023-04-24T00:42:32;100175.63;;;15.62;62.77
64739;BME280;51175;51.186;0.276;2023-04-24T00:43:03;100171.41;;;15.61;62.83
64739;BME280;51175;51.186;0.276;2023-04-24T00:43:33;100174.88;;;15.62;63.12
64739;BME280;51175;51.186;0.276;2023-04-24T00:44:04;100175.63;;;15.62;62.91
64739;BME280;51175;51.186;0.276;2023-04-24T00:44:35;100182.06;;;15.61;62.91
64739;BME280;51175;51.186;0.276;2023-04-24T00:45:06;100182.84;;;15.62;62.84
64739;BME280;51175;51.186;0.276;2023-04-24T00:45:36;100179.41;;;15.61;62.89
64739;BME280;51175;51.186;0.276;2023-04-24T00:46:07;100181.25;;;15.61;62.88
64739;BME280;51175;51.186;0.276;2023-04-24T00:46:37;100181.25;;;15.61;62.94
64739;BME280;51175;51.186;0.276;2023-04-24T00:47:08;100181.25;;;15.61;62.94
64739;BME280;51175;51.186;0.276;2023-04-24T00:47:41;100180.78;;;15.59;62.80
64739;BME280;51175;51.186;0.276;2023-04-24T00:48:11;100185.81;;;15.60;62.77
64739;BME280;51175;51.186;0.276;2023-04-24T00:48:43;100185.03;;;15.60;63.00
64739;BME280;51175;51.186;0.276;2023-04-24T00:49:13;100185.03;;;15.60;62.91
64739;BME280;51175;51.186;0.276;2023-04-24T00:49:44;100185.81;;;15.60;62.81
64739;BME280;51175;51.186;0.276;2023-04-24T00:50:15;100179.69;;;15.60;62.78
64739;BME280;51175;51.186;0.276;2023-04-24T00:50:45;100178.91;;;15.59;62.90
64739;BME280;51175;51.186;0.276;2023-04-24T00:51:16;100186.13;;;15.59;62.82
64739;BME280;51175;51.186;0.276;2023-04-24T00:51:46;100183.47;;;15.59;62.93
64739;BME280;51175;51.186;0.276;2023-04-24T00:52:17;100179.69;;;15.60;62.74
64739;BME280;51175;51.186;0.276;2023-04-24T00:52:48;100182.66;;;15.58;62.90
64739;BME280;51175;51.186;0.276;2023-04-24T00:53:18;100175.78;;;15.57;62.77
64739;BME280;51175;51.186;0.276;2023-04-24T00:53:48;100186.13;;;15.59;62.84
64739;BME280;51175;51.186;0.276;2023-04-24T00:54:20;100187.19;;;15.58;62.96
64739;BME280;51175;51.186;0.276;2023-04-24T00:54:50;100187.19;;;15.58;62.91
64739;BME280;51175;51.186;0.276;2023-04-24T00:55:21;100186.41;;;15.57;63.14
64739;BME280;51175;51.186;0.276;2023-04-24T00:55:51;100182.97;;;15.57;63.03
64739;BME280;51175;51.186;0.276;2023-04-24T00:56:21;100186.41;;;15.57;62.95
64739;BME280;51175;51.186;0.276;2023-04-24T00:56:53;100188.28;;;15.57;63.05
64739;BME280;51175;51.186;0.276;2023-04-24T00:57:24;100188.28;;;15.57;62.99
64739;BME280;51175;51.186;0.276;2023-04-24T00:57:54;100189.09;;;15.57;63.16
64739;BME280;51175;51.186;0.276;2023-04-24T00:58:25;100190.16;;;15.56;62.86
64739;BME280;51175;51.186;0.276;2023-04-24T00:58:56;100183.75;;;15.57;62.79
64739;BME280;51175;51.186;0.276;2023-04-24T00:59:26;100186.72;;;15.56;63.06
64739;BME280;51175;51.186;0.276;2023-04-24T00:59:57;100190.94;;;15.57;63.03
64739;BME280;51175;51.186;0.276;2023-04-24T01:00:27;100190.16;;;15.56;62.93
64739;BME280;51175;51.186;0.276;2023-04-24T01:00:58;100192.81;;;15.56;62.77
64739;BME280;51175;51.186;0.276;2023-04-24T01:01:31;100192.81;;;15.56;63.11
64739;BME280;51175;51.186;0.276;2023-04-24T01:02:02;100192.03;;;15.56;62.90
64739;BME280;51175;51.186;0.276;2023-04-24T01:02:33;100191.25;;;15.55;62.96
64739;BME280;51175;51.186;0.276;2023-04-24T01:03:04;100194.72;;;15.56;62.86
64739;BME280;51175;51.186;0.276;2023-04-24T01:03:36;100192.03;;;15.56;63.05
64739;BME280;51175;51.186;0.276;2023-04-24T01:04:07;100189.69;;;15.54;63.17
64739;BME280;51175;51.186;0.276;2023-04-24T01:04:39;100190.44;;;15.55;63.11
64739;BME280;51175;51.186;0.276;2023-04-24T01:05:11;100195.78;;;15.55;63.06
64739;BME280;51175;51.186;0.276;2023-04-24T01:05:42;100192.34;;;15.54;63.06
64739;BME280;51175;51.186;0.276;2023-04-24T01:06:13;100197.66;;;15.54;62.88
64739;BME280;51175;51.186;0.276;2023-04-24T01:06:45;100195.78;;;15.55;63.03
64739;BME280;51175;51.186;0.276;2023-04-24T01:07:16;100197.66;;;15.54;62.89
64739;BME280;51175;51.186;0.276;2023-04-24T01:07:47;100197.66;;;15.54;63.01
64739;BME280;51175;51.186;0.276;2023-04-24T01:08:19;100204.06;;;15.53;63.13
64739;BME280;51175;51.186;0.276;2023-04-24T01:08:50;100196.88;;;15.54;63.17
64739;BME280;51175;51.186;0.276;2023-04-24T01:09:22;100202.19;;;15.54;62.75
64739;BME280;51175;51.186;0.276;2023-04-24T01:09:53;100200.63;;;15.52;63.12
64739;BME280;51175;51.186;0.276;2023-04-24T01:10:24;100208.63;;;15.52;62.98
64739;BME280;51175;51.186;0.276;2023-04-24T01:10:56;100206.72;;;15.53;63.08
64739;BME280;51175;51.186;0.276;2023-04-24T01:11:27;100202.50;;;15.52;63.14
64739;BME280;51175;51.186;0.276;2023-04-24T01:11:59;100210.47;;;15.52;63.11
64739;BME280;51175;51.186;0.276;2023-04-24T01:12:31;100213.94;;;15.52;62.82
64739;BME280;51175;51.186;0.276;2023-04-24T01:13:01;100209.69;;;15.51;62.96
64739;BME280;51175;51.186;0.276;2023-04-24T01:13:32;100212.34;;;15.51;62.92
64739;BME280;51175;51.186;0.276;2023-04-24T01:14:03;100221.13;;;15.52;62.85
64739;BME280;51175;51.186;0.276;2023-04-24T01:14:34;100215.00;;;15.51;63.14
64739;BME280;51175;51.186;0.276;2023-04-24T01:15:05;100218.47;;;15.52;63.02
64739;BME280;51175;51.186;0.276;2023-04-24T01:15:36;100217.66;;;15.51;63.15
64739;BME280;51175;51.186;0.276;2023-04-24T01:16:07;100215.00;;;15.51;63.13
64739;BME280;51175;51.186;0.276;2023-04-24T01:16:37;100214.25;;;15.51;63.20
64739;BME280;51175;51.186;0.276;2023-04-24T01:17:08;100217.66;;;15.51;63.02
64739;BME280;51175;51.186;0.276;2023-04-24T01:17:39;100216.91;;;15.51;63.02
64739;BME280;51175;51.186;0.276;2023-04-24T01:18:09;100213.44;;;15.50;62.93
64739;BME280;51175;51.186;0.276;2023-04-24T01:18:40;100213.44;;;15.50;63.16
64739;BME280;51175;51.186;0.276;2023-04-24T01:19:11;100222.22;;;15.51;62.90
64739;BME280;51175;51.186;0.276;2023-04-24T01:19:42;100216.91;;;15.51;62.89
64739;BME280;51175;51.186;0.276;2023-04-24T01:20:14;100214.25;;;15.51;62.80
64739;BME280;51175;51.186;0.276;2023-04-24T01:20:45;100212.66;;;15.50;62.97
64739;BME280;51175;51.186;0.276;2023-04-24T01:21:17;100218.75;;;15.50;62.85
64739;BME280;51175;51.186;0.276;2023-04-24T01:21:50;100214.25;;;15.51;62.79
64739;BME280;51175;51.186;0.276;2023-04-24T01:22:22;100217.66;;;15.51;63.13
64739;BME280;51175;51.186;0.276;2023-04-24T01:22:54;100211.06;;;15.49;62.98
64739;BME280;51175;51.186;0.276;2023-04-24T01:23:26;100222.53;;;15.49;63.20
64739;BME280;51175;51.186;0.276;2023-04-24T01:23:57;100217.19;;;15.49;63.04
64739;BME280;51175;51.186;0.276;2023-04-24T01:24:28;100217.19;;;15.49;63.00
64739;BME280;51175;51.186;0.276;2023-04-24T01:24:59;100216.41;;;15.49;63.12
64739;BME280;51175;51.186;0.276;2023-04-24T01:25:29;100214.84;;;15.48;63.12
64739;BME280;51175;51.186;0.276;2023-04-24T01:26:00;100218.25;;;15.48;62.85
64739;BME280;51175;51.186;0.276;2023-04-24T01:26:31;100216.69;;;15.47;63.27
64739;BME280;51175;51.186;0.276;2023-04-24T01:27:01;100214.84;;;15.48;62.95
64739;BME280;51175;51.186;0.276;2023-04-24T01:27:32;100220.16;;;15.48;62.98
64739;BME280;51175;51.186;0.276;2023-04-24T01:28:03;100220.16;;;15.48;62.84
64739;BME280;51175;51.186;0.276;2023-04-24T01:28:33;100214.84;;;15.48;62.95
64739;BME280;51175;51.186;0.276;2023-04-24T01:29:04;100212.94;;;15.48;63.07
64739;BME280;51175;51.186;0.276;2023-04-24T01:29:35;100215.59;;;15.48;63.00
64739;BME280;51175;51.186;0.276;2023-04-24T01:30:07;100215.59;;;15.48;62.94
64739;BME280;51175;51.186;0.276;2023-04-24T01:30:37;100212.19;;;15.48;63.10
64739;BME280;51175;51.186;0.276;2023-04-24T01:31:08;100220.16;;;15.48;63.10
64739;BME280;51175;51.186;0.276;2023-04-24T01:31:39;100214.03;;;15.47;62.93
64739;BME280;51175;51.186;0.276;2023-04-24T01:32:10;100210.59;;;15.47;62.86
64739;BME280;51175;51.186;0.276;2023-04-24T01:32:41;100222.03;;;15.47;62.91
64739;BME280;51175;51.186;0.276;2023-04-24T01:33:14;100207.16;;;15.46;63.12
64739;BME280;51175;51.186;0.276;2023-04-24T01:33:45;100212.47;;;15.46;63.08
64739;BME280;51175;51.186;0.276;2023-04-24T01:34:16;100211.38;;;15.47;63.00
64739;BME280;51175;51.186;0.276;2023-04-24T01:34:48;100217.78;;;15.46;62.96
64739;BME280;51175;51.186;0.276;2023-04-24T01:35:19;100217.50;;;15.48;62.83
64739;BME280;51175;51.186;0.276;2023-04-24T01:35:51;100219.66;;;15.46;63.07
64739;BME280;51175;51.186;0.276;2023-04-24T01:36:22;100219.66;;;15.46;62.90
64739;BME280;51175;51.186;0.276;2023-04-24T01:36:53;100217.00;;;15.46;62.96
64739;BME280;51175;51.186;0.276;2023-04-24T01:37:24;100219.66;;;15.46;63.14
64739;BME280;51175;51.186;0.276;2023-04-24T01:37:54;100219.66;;;15.46;62.89
64739;BME280;51175;51.186;0.276;2023-04-24T01:38:25;100222.31;;;15.46;62.88
64739;BME280;51175;51.186;0.276;2023-04-24T01:38:55;100218.88;;;15.45;63.08
64739;BME280;51175;51.186;0.276;2023-04-24T01:39:26;100224.19;;;15.45;63.10
64739;BME280;51175;51.186;0.276;2023-04-24T01:39:58;100219.66;;;15.46;63.22
64739;BME280;51175;51.186;0.276;2023-04-24T01:40:29;100216.19;;;15.45;63.03
64739;BME280;51175;51.186;0.276;2023-04-24T01:41:00;100224.19;;;15.45;62.84
64739;BME280;51175;51.186;0.276;2023-04-24T01:41:31;100219.66;;;15.46;62.96
64739;BME280;51175;51.186;0.276;2023-04-24T01:42:02;100224.19;;;15.45;62.95
64739;BME280;51175;51.186;0.276;2023-04-24T01:42:34;100224.19;;;15.45;62.82
64739;BME280;51175;51.186;0.276;2023-04-24T01:43:05;100220.75;;;15.45;63.17
64739;BME280;51175;51.186;0.276;2023-04-24T01:43:35;100223.41;;;15.45;63.13
64739;BME280;51175;51.186;0.276;2023-04-24T01:44:05;100220.75;;;15.45;62.80
64739;BME280;51175;51.186;0.276;2023-04-24T01:44:36;100227.16;;;15.44;63.04
64739;BME280;51175;51.186;0.276;2023-04-24T01:45:10;100221.81;;;15.44;63.21
64739;BME280;51175;51.186;0.276;2023-04-24T01:45:40;100220.25;;;15.43;63.02
64739;BME280;51175;51.186;0.276;2023-04-24T01:46:11;100221.81;;;15.44;62.99
64739;BME280;51175;51.186;0.276;2023-04-24T01:46:41;100218.41;;;15.43;63.19
64739;BME280;51175;51.186;0.276;2023-04-24T01:47:12;100224.47;;;15.44;63.02
64739;BME280;51175;51.186;0.276;2023-04-24T01:47:43;100218.41;;;15.43;63.08
64739;BME280;51175;51.186;0.276;2023-04-24T01:48:15;100215.72;;;15.43;63.11
64739;BME280;51175;51.186;0.276;2023-04-24T01:48:45;100217.59;;;15.43;63.25
64739;BME280;51175;51.186;0.276;2023-04-24T01:49:16;100217.59;;;15.43;62.95
64739;BME280;51175;51.186;0.276;2023-04-24T01:49:47;100216.81;;;15.42;63.00
64739;BME280;51175;51.186;0.276;2023-04-24T01:50:18;100222.13;;;15.42;63.15
64739;BME280;51175;51.186;0.276;2023-04-24T01:50:48;100212.56;;;15.41;63.07
64739;BME280;51175;51.186;0.276;2023-04-24T01:51:19;100216.03;;;15.42;63.04
64739;BME280;51175;51.186;0.276;2023-04-24T01:51:49;100219.75;;;15.41;62.95
64739;BME280;51175;51.186;0.276;2023-04-24T01:52:20;100217.91;;;15.41;62.87
64739;BME280;51175;51.186;0.276;2023-04-24T01:52:50;100218.69;;;15.42;63.18
64739;BME280;51175;51.186;0.276;2023-04-24T01:53:21;100215.22;;;15.41;63.25
64739;BME280;51175;51.186;0.276;2023-04-24T01:53:51;100216.03;;;15.42;63.15
64739;BME280;51175;51.186;0.276;2023-04-24T01:54:21;100220.56;;;15.41;62.97
64739;BME280;51175;51.186;0.276;2023-04-24T01:54:52;100223.22;;;15.41;63.01
64739;BME280;51175;51.186;0.276;2023-04-24T01:55:22;100225.88;;;15.41;63.26
64739;BME280;51175;51.186;0.276;2023-04-24T01:55:53;100217.09;;;15.41;63.06
64739;BME280;51175;51.186;0.276;2023-04-24T01:56:24;100225.09;;;15.41;63.15
64739;BME280;51175;51.186;0.276;2023-04-24T01:56:55;100219.00;;;15.40;63.27
64739;BME280;51175;51.186;0.276;2023-04-24T01:57:26;100219.00;;;15.40;62.87
64739;BME280;51175;51.186;0.276;2023-04-24T01:57:56;100223.53;;;15.39;62.92
64739;BME280;51175;51.186;0.276;2023-04-24T01:58:28;100221.94;;;15.38;63.18
64739;BME280;51175;51.186;0.276;2023-04-24T01:58:59;100227.28;;;15.38;63.12
64739;BME280;51175;51.186;0.276;2023-04-24T01:59:30;100228.03;;;15.39;62.91
64739;BME280;51175;51.186;0.276;2023-04-24T02:00:04;100230.69;;;15.39;62.92
64739;BME280;51175;51.186;0.276;2023-04-24T02:00:34;100237.91;;;15.38;63.19
64739;BME280;51175;51.186;0.276;2023-04-24T02:01:06;100235.25;;;15.38;63.03
64739;BME280;51175;51.186;0.276;2023-04-24T02:01:37;100237.91;;;15.38;63.05
64739;BME280;51175;51.186;0.276;2023-04-24T02:02:08;100234.47;;;15.38;63.02
64739;BME280;51175;51.186;0.276;2023-04-24T02:02:41;100235.56;;;15.37;63.05
64739;BME280;51175;51.186;0.276;2023-04-24T02:03:12;100239.78;;;15.38;63.25
64739;BME280;51175;51.186;0.276;2023-04-24T02:03:42;100241.66;;;15.37;63.03
64739;BME280;51175;51.186;0.276;2023-04-24T02:04:13;100242.75;;;15.36;63.01
64739;BME280;51175;51.186;0.276;2023-04-24T02:04:44;100240.88;;;15.37;62.91
64739;BME280;51175;51.186;0.276;2023-04-24T02:05:15;100246.19;;;15.37;63.04
64739;BME280;51175;51.186;0.276;2023-04-24T02:05:45;100246.97;;;15.37;63.38
64739;BME280;51175;51.186;0.276;2023-04-24T02:06:15;100244.31;;;15.37;62.99
64739;BME280;51175;51.186;0.276;2023-04-24T02:06:46;100254.19;;;15.37;62.78
64739;BME280;51175;51.186;0.276;2023-04-24T02:07:16;100244.31;;;15.37;63.18
64739;BME280;51175;51.186;0.276;2023-04-24T02:07:47;100248.84;;;15.37;63.05
64739;BME280;51175;51.186;0.276;2023-04-24T02:08:17;100250.72;;;15.36;63.21
64739;BME280;51175;51.186;0.276;2023-04-24T02:08:47;100245.41;;;15.36;63.32
64739;BME280;51175;51.186;0.276;2023-04-24T02:09:18;100250.72;;;15.36;63.20
64739;BME280;51175;51.186;0.276;2023-04-24T02:09:48;100251.53;;;15.37;63.28
64739;BME280;51175;51.186;0.276;2023-04-24T02:10:19;100250.72;;;15.36;63.20
64739;BME280;51175;51.186;0.276;2023-04-24T02:10:49;100245.41;;;15.36;63.01
64739;BME280;51175;51.186;0.276;2023-04-24T02:11:20;100252.59;;;15.36;62.94
64739;BME280;51175;51.186;0.276;2023-04-24T02:11:50;100253.38;;;15.36;63.12
64739;BME280;51175;51.186;0.276;2023-04-24T02:12:20;100257.91;;;15.36;63.10
64739;BME280;51175;51.186;0.276;2023-04-24T02:12:51;100259.81;;;15.35;62.85
64739;BME280;51175;51.186;0.276;2023-04-24T02:13:21;100251.81;;;15.35;63.36
64739;BME280;51175;51.186;0.276;2023-04-24T02:13:52;100258.22;;;15.34;63.02
64739;BME280;51175;51.186;0.276;2023-04-24T02:14:22;100255.53;;;15.34;63.14
64739;BME280;51175;51.186;0.276;2023-04-24T02:14:53;100256.34;;;15.35;63.03
64739;BME280;51175;51.186;0.276;2023-04-24T02:15:23;100259.00;;;15.35;63.04
64739;BME280;51175;51.186;0.276;2023-04-24T02:15:53;100253.69;;;15.35;63.18
64739;BME280;51175;51.186;0.276;2023-04-24T02:16:24;100250.22;;;15.34;63.16
64739;BME280;51175;51.186;0.276;2023-04-24T02:16:54;100260.88;;;15.34;63.30
64739;BME280;51175;51.186;0.276;2023-04-24T02:17:25;100257.44;;;15.34;63.28
64739;BME280;51175;51.186;0.276;2023-04-24T02:17:56;100260.09;;;15.34;63.03
64739;BME280;51175;51.186;0.276;2023-04-24T02:18:26;100255.84;;;15.33;63.05
64739;BME280;51175;51.186;0.276;2023-04-24T02:18:56;100255.84;;;15.33;63.08
64739;BME280;51175;51.186;0.276;2023-04-24T02:19:27;100253.97;;;15.33;63.04
64739;BME280;51175;51.186;0.276;2023-04-24T02:19:57;100253.97;;;15.33;63.31
64739;BME280;51175;51.186;0.276;2023-04-24T02:20:28;100253.97;;;15.33;63.20
64739;BME280;51175;51.186;0.276;2023-04-24T02:20:58;100260.09;;;15.34;62.96
64739;BME280;51175;51.186;0.276;2023-04-24T02:21:29;100263.03;;;15.32;62.96
64739;BME280;51175;51.186;0.276;2023-04-24T02:22:01;100253.97;;;15.33;63.04
64739;BME280;51175;51.186;0.276;2023-04-24T02:22:31;100255.84;;;15.33;63.28
64739;BME280;51175;51.186;0.276;2023-04-24T02:23:02;100255.84;;;15.33;62.85
64739;BME280;51175;51.186;0.276;2023-04-24T02:23:32;100261.47;;;15.31;63.10
64739;BME280;51175;51.186;0.276;2023-04-24T02:24:02;100257.69;;;15.32;62.91
64739;BME280;51175;51.186;0.276;2023-04-24T02:24:33;100253.47;;;15.31;63.10
64739;BME280;51175;51.186;0.276;2023-04-24T02:25:04;100251.91;;;15.30;63.20
64739;BME280;51175;51.186;0.276;2023-04-24T02:25:35;100256.13;;;15.31;63.20
64739;BME280;51175;51.186;0.276;2023-04-24T02:26:05;100251.91;;;15.30;63.23
64739;BME280;51175;51.186;0.276;2023-04-24T02:26:36;100250.03;;;15.31;63.18
64739;BME280;51175;51.186;0.276;2023-04-24T02:27:06;100259.91;;;15.30;63.10
64739;BME280;51175;51.186;0.276;2023-04-24T02:27:37;100258.00;;;15.31;63.18
64739;BME280;51175;51.186;0.276;2023-04-24T02:28:07;100254.56;;;15.30;63.19
64739;BME280;51175;51.186;0.276;2023-04-24T02:28:37;100246.59;;;15.30;63.29
64739;BME280;51175;51.186;0.276;2023-04-24T02:29:08;100250.03;;;15.31;63.28
64739;BME280;51175;51.186;0.276;2023-04-24T02:29:38;100249.25;;;15.30;63.21
64739;BME280;51175;51.186;0.276;2023-04-24T02:30:09;100254.56;;;15.30;63.29
64739;BME280;51175;51.186;0.276;2023-04-24T02:30:40;100248.47;;;15.30;62.97
64739;BME280;51175;51.186;0.276;2023-04-24T02:31:10;100247.66;;;15.29;62.99
64739;BME280;51175;51.186;0.276;2023-04-24T02:31:41;100252.22;;;15.29;63.01
64739;BME280;51175;51.186;0.276;2023-04-24T02:32:11;100251.41;;;15.28;63.17
64739;BME280;51175;51.186;0.276;2023-04-24T02:32:42;100254.88;;;15.29;63.05
64739;BME280;51175;51.186;0.276;2023-04-24T02:33:12;100251.41;;;15.28;63.20
64739;BME280;51175;51.186;0.276;2023-04-24T02:33:42;100252.97;;;15.29;63.36
64739;BME280;51175;51.186;0.276;2023-04-24T02:34:13;100249.56;;;15.29;62.94
64739;BME280;51175;51.186;0.276;2023-04-24T02:34:43;100254.06;;;15.28;63.29
64739;BME280;51175;51.186;0.276;2023-04-24T02:35:13;100253.28;;;15.27;63.29
64739;BME280;51175;51.186;0.276;2023-04-24T02:35:44;100253.28;;;15.27;63.03
64739;BME280;51175;51.186;0.276;2023-04-24T02:36:14;100254.06;;;15.28;63.06
64739;BME280;51175;51.186;0.276;2023-04-24T02:36:45;100254.38;;;15.26;63.19
64739;BME280;51175;51.186;0.276;2023-04-24T02:37:15;100248.25;;;15.26;62.87
64739;BME280;51175;51.186;0.276;2023-04-24T02:37:45;100258.59;;;15.27;63.07
64739;BME280;51175;51.186;0.276;2023-04-24T02:38:16;100251.72;;;15.26;62.95
64739;BME280;51175;51.186;0.276;2023-04-24T02:38:46;100257.03;;;15.26;63.16
64739;BME280;51175;51.186;0.276;2023-04-24T02:39:16;100255.16;;;15.27;62.91
64739;BME280;51175;51.186;0.276;2023-04-24T02:39:47;100255.16;;;15.27;63.26
64739;BME280;51175;51.186;0.276;2023-04-24T02:40:17;100256.22;;;15.26;63.10
64739;BME280;51175;51.186;0.276;2023-04-24T02:40:48;100252.81;;;15.25;63.40
64739;BME280;51175;51.186;0.276;2023-04-24T02:41:18;100260.78;;;15.25;63.04